Uni-arise — 3FSV7 — position and weather

sailwx.info

Track history (hours):
 
Tides and Currents Weather Stations Pressure Air Temp Water Temp Dewpoint Dewpoint Depression Visibility Wind Speed Wind Dir Waves Ship Positions

Uni-arise

Last reported at 2015-May-21 20:33 UTC. Time now 2015-May-29 10:02 UTC.
Position N 20°11' E 110°12'.

Length 165 m; draft 6.7 m.

Type: Cargo ship. MMSI: 351608000.

Date/timePositionNaut miles runAvg speedWind from/ knotsBaromVisibWave heightAir tempDewpointWater temp
2015-May-21 20:33N 20°11' E 110°12'25813.6
2015-May-21 01:33N 22°07' E 114°20'11 9.5
2015-May-21 00:25N 22°12' E 114°10'910.3
2015-May-20 23:33N 22°20' E 114°05'1110.6
2015-May-20 22:33N 22°23' E 113°54'4 4.4
2015-May-20 21:34N 22°27' E 113°53'0 0.0
2015-May-20 20:27N 22°27' E 113°53'0 0.0
2015-May-20 19:10N 22°27' E 113°53'0 0.0
2015-May-20 17:04N 22°27' E 113°53'0 0.0
2015-May-20 16:29N 22°27' E 113°53'1 0.9
2015-May-20 15:32N 22°26' E 113°53'12 8.7
2015-May-20 14:08N 22°20' E 114°05'2 3.0
2015-May-20 13:31N 22°18' E 114°05'0 0.1
2015-May-20 12:31N 22°18' E 114°05'0 0.1
2015-May-20 11:25N 22°18' E 114°05'0 0.0
2015-May-20 10:31N 22°18' E 114°05'0 0.1
2015-May-20 09:31N 22°18' E 114°05'0 0.1
2015-May-20 08:31N 22°18' E 114°05'2 2.4
2015-May-20 07:32N 22°20' E 114°07'1 0.9
2015-May-20 06:31N 22°20' E 114°07'0 0.0
2015-May-20 05:25N 22°20' E 114°07'0 0.0
2015-May-20 04:19N 22°20' E 114°07'0 0.0
2015-May-20 03:31N 22°20' E 114°07'0 0.0
2015-May-20 02:31N 22°20' E 114°07'0 0.0
2015-May-20 01:25N 22°20' E 114°07'0 0.0
2015-May-19 23:25N 22°20' E 114°07'0 0.0
2015-May-19 22:10N 22°20' E 114°07'0 0.0
2015-May-19 21:28N 22°20' E 114°07'0 0.0
2015-May-19 20:31N 22°20' E 114°07'0 0.0
2015-May-19 19:31N 22°20' E 114°07'0 0.0
2015-May-19 18:28N 22°20' E 114°07'0 0.0
2015-May-19 17:19N 22°20' E 114°07'0 0.0
2015-May-19 16:22N 22°20' E 114°07'0 0.0
2015-May-19 15:33N 22°20' E 114°07'8 7.3
2015-May-19 14:28N 22°13' E 114°10'8 7.5
2015-May-19 13:24N 22°09' E 114°17'910.2
2015-May-19 12:33N 22°14' E 114°25'  
2015-May-16 10:33N 20°11' E 110°22'1110.7
2015-May-16 09:33N 20°09' E 110°11'6312.4
2015-May-16 04:29N 19°52' E 109°06'1111.4
2015-May-16 03:33N 19°42' E 109°09'3 3.0
2015-May-16 02:26N 19°44' E 109°12'0 0.0
2015-May-16 01:32N 19°44' E 109°12'0 0.0
2015-May-16 00:26N 19°44' E 109°12'0 0.0
2015-May-15 23:32N 19°44' E 109°12'0 0.0
2015-May-15 22:32N 19°44' E 109°12'0 0.0
2015-May-15 21:32N 19°44' E 109°12'0 0.0
2015-May-15 20:32N 19°44' E 109°12'0 0.0
2015-May-15 19:32N 19°44' E 109°12'0 0.0
2015-May-15 18:32N 19°44' E 109°12'0 0.0
2015-May-15 17:32N 19°44' E 109°12'0 0.0
2015-May-15 16:32N 19°44' E 109°12'0 0.0
2015-May-15 15:32N 19°44' E 109°12'0 0.0
2015-May-15 14:32N 19°44' E 109°12'0 0.0
2015-May-15 13:32N 19°44' E 109°12'0 0.0
2015-May-15 12:26N 19°44' E 109°12'0 0.0
2015-May-15 11:32N 19°44' E 109°12'0 0.0
2015-May-15 10:33N 19°44' E 109°12'6 5.5
2015-May-15 09:33N 19°44' E 109°06'6511.9
2015-May-15 04:05N 20°10' E 110°09'710.2
2015-May-15 03:21N 20°12' E 110°17'25413.5
2015-May-14 08:30N 22°06' E 114°20'19 5.7
2015-May-14 05:13N 22°20' E 114°08'0 0.0
2015-May-14 03:10N 22°20' E 114°08'0 0.0
2015-May-14 01:16N 22°20' E 114°08'0 0.0
2015-May-14 00:24N 22°20' E 114°08'0 0.0
2015-May-13 23:21N 22°20' E 114°08'0 0.0
2015-May-13 22:33N 22°20' E 114°08'0 0.0
2015-May-13 21:27N 22°20' E 114°08'0 0.0
2015-May-13 20:27N 22°20' E 114°08'0 0.0
2015-May-13 19:33N 22°20' E 114°08'0 0.0
2015-May-13 18:30N 22°20' E 114°08'0 0.1
2015-May-13 17:33N 22°20' E 114°07'8 7.9
2015-May-13 16:33N 22°13' E 114°11'7 7.1
2015-May-13 15:33N 22°09' E 114°17'10 9.6
2015-May-13 14:31N 22°15' E 114°26'14 0.7
2015-May-12 17:05N 22°25' E 114°36'  
Track history (hours):
 
Tides and Currents Weather Stations Pressure Air Temp Water Temp Dewpoint Dewpoint Depression Visibility Wind Speed Wind Dir Waves Ship Positions

Uni-arise

Last reported at 2015-May-21 20:33 UTC. Time now 2015-May-29 10:02 UTC.
Position N 20°11' E 110°12'.

Length 165 m; draft 6.7 m.

Type: Cargo ship. MMSI: 351608000.

Date/timePositionNaut miles runAvg speedWind from/ knotsBaromVisibWave heightAir tempDewpointWater temp
2015-May-21 20:33N 20°11' E 110°12'25813.6
2015-May-21 01:33N 22°07' E 114°20'11 9.5
2015-May-21 00:25N 22°12' E 114°10'910.3
2015-May-20 23:33N 22°20' E 114°05'1110.6
2015-May-20 22:33N 22°23' E 113°54'4 4.4
2015-May-20 21:34N 22°27' E 113°53'0 0.0
2015-May-20 20:27N 22°27' E 113°53'0 0.0
2015-May-20 19:10N 22°27' E 113°53'0 0.0
2015-May-20 17:04N 22°27' E 113°53'0 0.0
2015-May-20 16:29N 22°27' E 113°53'1 0.9
2015-May-20 15:32N 22°26' E 113°53'12 8.7
2015-May-20 14:08N 22°20' E 114°05'2 3.0
2015-May-20 13:31N 22°18' E 114°05'0 0.1
2015-May-20 12:31N 22°18' E 114°05'0 0.1
2015-May-20 11:25N 22°18' E 114°05'0 0.0
2015-May-20 10:31N 22°18' E 114°05'0 0.1
2015-May-20 09:31N 22°18' E 114°05'0 0.1
2015-May-20 08:31N 22°18' E 114°05'2 2.4
2015-May-20 07:32N 22°20' E 114°07'1 0.9
2015-May-20 06:31N 22°20' E 114°07'0 0.0
2015-May-20 05:25N 22°20' E 114°07'0 0.0
2015-May-20 04:19N 22°20' E 114°07'0 0.0
2015-May-20 03:31N 22°20' E 114°07'0 0.0
2015-May-20 02:31N 22°20' E 114°07'0 0.0
2015-May-20 01:25N 22°20' E 114°07'0 0.0
2015-May-19 23:25N 22°20' E 114°07'0 0.0
2015-May-19 22:10N 22°20' E 114°07'0 0.0
2015-May-19 21:28N 22°20' E 114°07'0 0.0
2015-May-19 20:31N 22°20' E 114°07'0 0.0
2015-May-19 19:31N 22°20' E 114°07'0 0.0
2015-May-19 18:28N 22°20' E 114°07'0 0.0
2015-May-19 17:19N 22°20' E 114°07'0 0.0
2015-May-19 16:22N 22°20' E 114°07'0 0.0
2015-May-19 15:33N 22°20' E 114°07'8 7.3
2015-May-19 14:28N 22°13' E 114°10'8 7.5
2015-May-19 13:24N 22°09' E 114°17'910.2
2015-May-19 12:33N 22°14' E 114°25'  
2015-May-16 10:33N 20°11' E 110°22'1110.7
2015-May-16 09:33N 20°09' E 110°11'6312.4
2015-May-16 04:29N 19°52' E 109°06'1111.4
2015-May-16 03:33N 19°42' E 109°09'3 3.0
2015-May-16 02:26N 19°44' E 109°12'0 0.0
2015-May-16 01:32N 19°44' E 109°12'0 0.0
2015-May-16 00:26N 19°44' E 109°12'0 0.0
2015-May-15 23:32N 19°44' E 109°12'0 0.0
2015-May-15 22:32N 19°44' E 109°12'0 0.0
2015-May-15 21:32N 19°44' E 109°12'0 0.0
2015-May-15 20:32N 19°44' E 109°12'0 0.0
2015-May-15 19:32N 19°44' E 109°12'0 0.0
2015-May-15 18:32N 19°44' E 109°12'0 0.0
2015-May-15 17:32N 19°44' E 109°12'0 0.0
2015-May-15 16:32N 19°44' E 109°12'0 0.0
2015-May-15 15:32N 19°44' E 109°12'0 0.0
2015-May-15 14:32N 19°44' E 109°12'0 0.0
2015-May-15 13:32N 19°44' E 109°12'0 0.0
2015-May-15 12:26N 19°44' E 109°12'0 0.0
2015-May-15 11:32N 19°44' E 109°12'0 0.0
2015-May-15 10:33N 19°44' E 109°12'6 5.5
2015-May-15 09:33N 19°44' E 109°06'6511.9
2015-May-15 04:05N 20°10' E 110°09'710.2
2015-May-15 03:21N 20°12' E 110°17'25413.5
2015-May-14 08:30N 22°06' E 114°20'19 5.7
2015-May-14 05:13N 22°20' E 114°08'0 0.0
2015-May-14 03:10N 22°20' E 114°08'0 0.0
2015-May-14 01:16N 22°20' E 114°08'0 0.0
2015-May-14 00:24N 22°20' E 114°08'0 0.0
2015-May-13 23:21N 22°20' E 114°08'0 0.0
2015-May-13 22:33N 22°20' E 114°08'0 0.0
2015-May-13 21:27N 22°20' E 114°08'0 0.0
2015-May-13 20:27N 22°20' E 114°08'0 0.0
2015-May-13 19:33N 22°20' E 114°08'0 0.0
2015-May-13 18:30N 22°20' E 114°08'0 0.1
2015-May-13 17:33N 22°20' E 114°07'8 7.9
2015-May-13 16:33N 22°13' E 114°11'7 7.1
2015-May-13 15:33N 22°09' E 114°17'10 9.6
2015-May-13 14:31N 22°15' E 114°26'14 0.7
2015-May-12 17:05N 22°25' E 114°36'  

Dump ship's entire track history